sensor_id;sensor_type;location;lat;lon;timestamp;pressure;altitude;pressure_sealevel;temperature;humidity
79028;BME280;68427;48.476;19.102;2023-03-24T00:00:40;97238.28;;;6.83;77.68
79028;BME280;68427;48.476;19.102;2023-03-24T00:03:06;97235.69;;;6.83;77.83
79028;BME280;68427;48.476;19.102;2023-03-24T00:05:32;97229.66;;;6.82;77.62
79028;BME280;68427;48.476;19.102;2023-03-24T00:07:58;97220.94;;;6.75;77.89
79028;BME280;68427;48.476;19.102;2023-03-24T00:10:30;97219.31;;;6.74;77.42
79028;BME280;68427;48.476;19.102;2023-03-24T00:12:58;97218.78;;;6.79;77.82
79028;BME280;68427;48.476;19.102;2023-03-24T00:15:26;97225.25;;;6.83;77.29
79028;BME280;68427;48.476;19.102;2023-03-24T00:17:52;97230.63;;;6.81;77.44
79028;BME280;68427;48.476;19.102;2023-03-24T00:20:21;97225.06;;;6.84;77.28
79028;BME280;68427;48.476;19.102;2023-03-24T00:22:50;97224.47;;;6.82;77.27
79028;BME280;68427;48.476;19.102;2023-03-24T00:25:22;97224.63;;;6.81;77.55
79028;BME280;68427;48.476;19.102;2023-03-24T00:27:49;97234.41;;;6.79;76.90
79028;BME280;68427;48.476;19.102;2023-03-24T00:30:16;97229.56;;;6.76;77.18
79028;BME280;68427;48.476;19.102;2023-03-24T00:32:44;97226.16;;;6.75;77.30
79028;BME280;68427;48.476;19.102;2023-03-24T00:35:10;97218.50;;;6.74;77.42
79028;BME280;68427;48.476;19.102;2023-03-24T00:37:37;97215.28;;;6.71;77.08
79028;BME280;68427;48.476;19.102;2023-03-24T00:40:04;97211.75;;;6.64;77.21
79028;BME280;68427;48.476;19.102;2023-03-24T00:42:37;97208.53;;;6.62;76.83
79028;BME280;68427;48.476;19.102;2023-03-24T00:45:03;97191.50;;;6.60;76.96
79028;BME280;68427;48.476;19.102;2023-03-24T00:47:30;97193.47;;;6.58;76.35
79028;BME280;68427;48.476;19.102;2023-03-24T00:49:57;97182.41;;;6.56;76.59
79028;BME280;68427;48.476;19.102;2023-03-24T00:52:26;97176.94;;;6.51;76.68
79028;BME280;68427;48.476;19.102;2023-03-24T00:54:59;97173.41;;;6.43;77.05
79028;BME280;68427;48.476;19.102;2023-03-24T00:57:26;97181.84;;;6.45;77.63
79028;BME280;68427;48.476;19.102;2023-03-24T00:59:55;97187.41;;;6.42;78.09
79028;BME280;68427;48.476;19.102;2023-03-24T01:02:23;97182.22;;;6.42;78.58
79028;BME280;68427;48.476;19.102;2023-03-24T01:04:51;97179.13;;;6.39;78.88
79028;BME280;68427;48.476;19.102;2023-03-24T01:07:20;97185.97;;;6.40;78.91
79028;BME280;68427;48.476;19.102;2023-03-24T01:09:46;97185.97;;;6.40;79.27
79028;BME280;68427;48.476;19.102;2023-03-24T01:12:22;97178.78;;;6.42;78.94
79028;BME280;68427;48.476;19.102;2023-03-24T01:14:47;97186.94;;;6.39;78.71
79028;BME280;68427;48.476;19.102;2023-03-24T01:17:13;97188.91;;;6.37;78.47
79028;BME280;68427;48.476;19.102;2023-03-24T01:19:39;97185.06;;;6.33;78.57
79028;BME280;68427;48.476;19.102;2023-03-24T01:22:06;97188.19;;;6.28;78.53
79028;BME280;68427;48.476;19.102;2023-03-24T01:24:33;97191.78;;;6.27;78.59
79028;BME280;68427;48.476;19.102;2023-03-24T01:26:58;97190.50;;;6.23;79.27
79028;BME280;68427;48.476;19.102;2023-03-24T01:29:24;97186.09;;;6.23;78.85
79028;BME280;68427;48.476;19.102;2023-03-24T01:31:50;97187.25;;;6.21;80.47
79028;BME280;68427;48.476;19.102;2023-03-24T01:34:16;97189.69;;;6.22;79.82
79028;BME280;68427;48.476;19.102;2023-03-24T01:36:42;97192.56;;;6.27;79.39
79028;BME280;68427;48.476;19.102;2023-03-24T01:39:08;97180.22;;;6.30;79.51
79028;BME280;68427;48.476;19.102;2023-03-24T01:41:37;97184.06;;;6.34;79.67
79028;BME280;68427;48.476;19.102;2023-03-24T01:44:27;97182.44;;;6.33;79.97
79028;BME280;68427;48.476;19.102;2023-03-24T01:46:53;97194.47;;;6.34;79.20
79028;BME280;68427;48.476;19.102;2023-03-24T01:49:20;97174.47;;;6.34;78.85
79028;BME280;68427;48.476;19.102;2023-03-24T01:51:47;97172.41;;;6.44;78.81
79028;BME280;68427;48.476;19.102;2023-03-24T01:54:16;97176.00;;;6.43;79.03
79028;BME280;68427;48.476;19.102;2023-03-24T01:56:48;97174.47;;;6.34;79.68
79028;BME280;68427;48.476;19.102;2023-03-24T01:59:17;97179.72;;;6.26;80.17
79028;BME280;68427;48.476;19.102;2023-03-24T02:01:44;97175.34;;;6.26;79.84
79028;BME280;68427;48.476;19.102;2023-03-24T02:04:10;97159.22;;;6.31;79.15
79028;BME280;68427;48.476;19.102;2023-03-24T02:06:38;97167.00;;;6.31;79.40
79028;BME280;68427;48.476;19.102;2023-03-24T02:09:06;97170.63;;;6.30;79.40
79028;BME280;68427;48.476;19.102;2023-03-24T02:11:34;97164.94;;;6.26;79.75
79028;BME280;68427;48.476;19.102;2023-03-24T02:14:02;97168.88;;;6.22;79.58
79028;BME280;68427;48.476;19.102;2023-03-24T02:16:48;97164.00;;;6.19;79.18
79028;BME280;68427;48.476;19.102;2023-03-24T02:19:41;97172.38;;;6.15;79.94
79028;BME280;68427;48.476;19.102;2023-03-24T02:22:33;97171.94;;;6.03;80.36
79028;BME280;68427;48.476;19.102;2023-03-24T02:25:31;97173.41;;;6.05;79.87
79028;BME280;68427;48.476;19.102;2023-03-24T02:28:11;97176.28;;;6.11;80.13
79028;BME280;68427;48.476;19.102;2023-03-24T02:34:06;97163.41;;;6.17;79.56
79028;BME280;68427;48.476;19.102;2023-03-24T02:37:12;97163.72;;;6.14;79.80
79028;BME280;68427;48.476;19.102;2023-03-24T02:39:56;97149.28;;;6.12;78.58
79028;BME280;68427;48.476;19.102;2023-03-24T02:42:33;97142.66;;;6.09;79.31
79028;BME280;68427;48.476;19.102;2023-03-24T02:45:11;97143.47;;;6.10;78.75
79028;BME280;68427;48.476;19.102;2023-03-24T02:47:47;97138.59;;;6.06;78.74
79028;BME280;68427;48.476;19.102;2023-03-24T02:50:20;97140.91;;;6.01;79.27
79028;BME280;68427;48.476;19.102;2023-03-24T02:53:00;97143.44;;;5.95;79.76
79028;BME280;68427;48.476;19.102;2023-03-24T02:55:32;97142.13;;;5.91;79.93
79028;BME280;68427;48.476;19.102;2023-03-24T02:58:01;97144.06;;;5.89;79.67
79028;BME280;68427;48.476;19.102;2023-03-24T03:00:32;97130.16;;;5.81;79.97
79028;BME280;68427;48.476;19.102;2023-03-24T03:03:03;97133.75;;;5.80;80.38
79028;BME280;68427;48.476;19.102;2023-03-24T03:05:34;97136.69;;;5.77;80.40
79028;BME280;68427;48.476;19.102;2023-03-24T03:08:04;97144.50;;;5.77;80.11
79028;BME280;68427;48.476;19.102;2023-03-24T03:10:36;97148.88;;;5.77;80.64
79028;BME280;68427;48.476;19.102;2023-03-24T03:13:07;97162.34;;;5.80;80.17
79028;BME280;68427;48.476;19.102;2023-03-24T03:15:37;97157.78;;;5.82;80.85
79028;BME280;68427;48.476;19.102;2023-03-24T03:18:08;97161.03;;;5.84;80.21
79028;BME280;68427;48.476;19.102;2023-03-24T03:20:39;97155.00;;;5.84;80.52
79028;BME280;68427;48.476;19.102;2023-03-24T03:23:16;97142.53;;;5.79;80.07
79028;BME280;68427;48.476;19.102;2023-03-24T03:25:47;97147.03;;;5.85;79.35
79028;BME280;68427;48.476;19.102;2023-03-24T03:28:18;97148.63;;;5.87;79.57
79028;BME280;68427;48.476;19.102;2023-03-24T03:30:49;97145.44;;;5.84;79.82
79028;BME280;68427;48.476;19.102;2023-03-24T03:33:18;97142.63;;;5.86;79.93
79028;BME280;68427;48.476;19.102;2023-03-24T03:35:53;97141.66;;;5.87;80.61
79028;BME280;68427;48.476;19.102;2023-03-24T03:38:25;97141.84;;;5.85;80.38
79028;BME280;68427;48.476;19.102;2023-03-24T03:40:59;97132.59;;;5.83;80.48
79028;BME280;68427;48.476;19.102;2023-03-24T03:43:25;97135.03;;;5.84;81.13
79028;BME280;68427;48.476;19.102;2023-03-24T03:45:52;97132.06;;;5.88;80.66
79028;BME280;68427;48.476;19.102;2023-03-24T03:48:18;97124.09;;;5.89;80.42
79028;BME280;68427;48.476;19.102;2023-03-24T03:50:45;97121.69;;;5.88;81.21
79028;BME280;68427;48.476;19.102;2023-03-24T03:53:12;97122.03;;;5.84;81.03
79028;BME280;68427;48.476;19.102;2023-03-24T03:55:40;97132.25;;;5.86;81.14
79028;BME280;68427;48.476;19.102;2023-03-24T03:58:07;97125.09;;;5.88;80.59
79028;BME280;68427;48.476;19.102;2023-03-24T04:00:34;97123.59;;;5.94;80.90
79028;BME280;68427;48.476;19.102;2023-03-24T04:03:21;97123.44;;;5.95;81.47
79028;BME280;68427;48.476;19.102;2023-03-24T04:05:57;97129.44;;;5.96;80.71
79028;BME280;68427;48.476;19.102;2023-03-24T04:08:36;97133.16;;;5.93;81.29
79028;BME280;68427;48.476;19.102;2023-03-24T04:11:33;97135.13;;;5.91;80.53
79028;BME280;68427;48.476;19.102;2023-03-24T04:14:11;97130.91;;;5.90;80.65
79028;BME280;68427;48.476;19.102;2023-03-24T04:16:52;97130.72;;;5.92;80.50
79028;BME280;68427;48.476;19.102;2023-03-24T04:19:35;97123.75;;;5.92;80.66
79028;BME280;68427;48.476;19.102;2023-03-24T04:22:20;97122.31;;;5.90;81.12
79028;BME280;68427;48.476;19.102;2023-03-24T04:24:52;97120.03;;;5.87;81.04
79028;BME280;68427;48.476;19.102;2023-03-24T04:27:24;97122.03;;;5.84;81.14
79028;BME280;68427;48.476;19.102;2023-03-24T04:30:00;97114.41;;;5.83;81.25
79028;BME280;68427;48.476;19.102;2023-03-24T04:32:31;97126.59;;;5.82;81.14
79028;BME280;68427;48.476;19.102;2023-03-24T04:35:03;97127.56;;;5.81;81.10
79028;BME280;68427;48.476;19.102;2023-03-24T04:37:33;97126.94;;;5.79;81.01
79028;BME280;68427;48.476;19.102;2023-03-24T04:40:06;97118.50;;;5.77;80.81
79028;BME280;68427;48.476;19.102;2023-03-24T04:42:35;97123.19;;;5.82;81.63
79028;BME280;68427;48.476;19.102;2023-03-24T04:45:04;97123.81;;;5.84;80.88
79028;BME280;68427;48.476;19.102;2023-03-24T04:47:33;97124.63;;;5.84;80.90
79028;BME280;68427;48.476;19.102;2023-03-24T04:50:04;97126.59;;;5.82;80.01
79028;BME280;68427;48.476;19.102;2023-03-24T04:52:33;97114.25;;;5.84;81.17
79028;BME280;68427;48.476;19.102;2023-03-24T04:55:00;97115.03;;;5.85;80.41
79028;BME280;68427;48.476;19.102;2023-03-24T04:57:26;97124.91;;;5.90;80.20
79028;BME280;68427;48.476;19.102;2023-03-24T04:59:52;97127.41;;;5.83;81.26
79028;BME280;68427;48.476;19.102;2023-03-24T05:02:19;97139.28;;;5.77;81.46
79028;BME280;68427;48.476;19.102;2023-03-24T05:04:45;97137.16;;;5.81;80.75
79028;BME280;68427;48.476;19.102;2023-03-24T05:07:11;97128.19;;;5.83;81.04
79028;BME280;68427;48.476;19.102;2023-03-24T05:09:39;97132.75;;;5.81;81.58
79028;BME280;68427;48.476;19.102;2023-03-24T05:12:05;97135.84;;;5.85;80.71
79028;BME280;68427;48.476;19.102;2023-03-24T05:14:31;97135.13;;;5.91;80.36
79028;BME280;68427;48.476;19.102;2023-03-24T05:16:57;97138.03;;;5.96;80.30
79028;BME280;68427;48.476;19.102;2023-03-24T05:19:24;97140.47;;;5.98;80.11
79028;BME280;68427;48.476;19.102;2023-03-24T05:21:50;97135.13;;;5.99;80.67
79028;BME280;68427;48.476;19.102;2023-03-24T05:24:16;97141.91;;;6.00;81.01
79028;BME280;68427;48.476;19.102;2023-03-24T05:26:41;97138.97;;;6.03;80.73
79028;BME280;68427;48.476;19.102;2023-03-24T05:29:07;97152.25;;;6.09;80.80
79028;BME280;68427;48.476;19.102;2023-03-24T05:31:33;97150.56;;;6.16;80.17
79028;BME280;68427;48.476;19.102;2023-03-24T05:33:58;97152.81;;;6.19;80.55
79028;BME280;68427;48.476;19.102;2023-03-24T05:36:26;97156.69;;;6.23;80.14
79028;BME280;68427;48.476;19.102;2023-03-24T05:38:51;97146.72;;;6.26;80.34
79028;BME280;68427;48.476;19.102;2023-03-24T05:41:17;97142.81;;;6.31;80.82
79028;BME280;68427;48.476;19.102;2023-03-24T05:43:43;97139.56;;;6.28;80.66
79028;BME280;68427;48.476;19.102;2023-03-24T05:46:08;97138.41;;;6.31;80.60
79028;BME280;68427;48.476;19.102;2023-03-24T05:48:34;97130.88;;;6.36;80.58
79028;BME280;68427;48.476;19.102;2023-03-24T05:51:00;97129.56;;;6.40;80.17
79028;BME280;68427;48.476;19.102;2023-03-24T05:53:27;97130.47;;;6.47;79.47
79028;BME280;68427;48.476;19.102;2023-03-24T05:55:53;97133.06;;;6.47;79.64
79028;BME280;68427;48.476;19.102;2023-03-24T05:58:19;97128.56;;;6.56;79.26
79028;BME280;68427;48.476;19.102;2023-03-24T06:00:46;97124.91;;;6.65;79.64
79028;BME280;68427;48.476;19.102;2023-03-24T06:03:12;97129.47;;;6.78;79.40
79028;BME280;68427;48.476;19.102;2023-03-24T06:05:38;97128.69;;;6.92;78.78
79028;BME280;68427;48.476;19.102;2023-03-24T06:08:04;97125.06;;;7.08;78.04
79028;BME280;68427;48.476;19.102;2023-03-24T06:10:31;97127.19;;;7.20;78.15
79028;BME280;68427;48.476;19.102;2023-03-24T06:12:57;97136.97;;;7.32;77.85
79028;BME280;68427;48.476;19.102;2023-03-24T06:15:23;97143.78;;;7.48;77.68
79028;BME280;68427;48.476;19.102;2023-03-24T06:17:52;97140.38;;;7.69;76.77
79028;BME280;68427;48.476;19.102;2023-03-24T06:20:19;97138.75;;;7.90;76.15
79028;BME280;68427;48.476;19.102;2023-03-24T06:22:45;97142.38;;;8.10;75.58
79028;BME280;68427;48.476;19.102;2023-03-24T06:25:16;97140.28;;;8.27;74.64
79028;BME280;68427;48.476;19.102;2023-03-24T06:27:46;97135.81;;;8.42;74.05
79028;BME280;68427;48.476;19.102;2023-03-24T06:30:13;97135.34;;;8.60;73.71
79028;BME280;68427;48.476;19.102;2023-03-24T06:32:40;97125.75;;;8.68;73.22
79028;BME280;68427;48.476;19.102;2023-03-24T06:35:07;97130.25;;;8.52;73.47
79028;BME280;68427;48.476;19.102;2023-03-24T06:37:32;97127.53;;;8.60;73.84
79028;BME280;68427;48.476;19.102;2023-03-24T06:39:58;97133.84;;;8.79;73.23
79028;BME280;68427;48.476;19.102;2023-03-24T06:42:24;97129.69;;;8.92;72.00
79028;BME280;68427;48.476;19.102;2023-03-24T06:44:52;97131.78;;;9.03;71.49
79028;BME280;68427;48.476;19.102;2023-03-24T06:47:18;97126.34;;;9.04;70.92
79028;BME280;68427;48.476;19.102;2023-03-24T06:49:44;97136.22;;;9.09;70.94
79028;BME280;68427;48.476;19.102;2023-03-24T06:52:10;97134.72;;;9.35;71.09
79028;BME280;68427;48.476;19.102;2023-03-24T06:54:36;97130.56;;;9.54;69.86
79028;BME280;68427;48.476;19.102;2023-03-24T06:57:02;97117.28;;;9.55;69.27
79028;BME280;68427;48.476;19.102;2023-03-24T06:59:28;97124.34;;;9.68;69.10
79028;BME280;68427;48.476;19.102;2023-03-24T07:01:55;97125.81;;;9.84;68.94
79028;BME280;68427;48.476;19.102;2023-03-24T07:04:20;97120.94;;;9.74;68.50
79028;BME280;68427;48.476;19.102;2023-03-24T07:06:50;97128.78;;;9.74;69.14
79028;BME280;68427;48.476;19.102;2023-03-24T07:09:16;97125.00;;;9.83;68.56
79028;BME280;68427;48.476;19.102;2023-03-24T07:11:43;97126.00;;;9.89;68.22
79028;BME280;68427;48.476;19.102;2023-03-24T07:14:09;97122.78;;;10.00;68.55
79028;BME280;68427;48.476;19.102;2023-03-24T07:16:35;97130.03;;;10.18;67.51
79028;BME280;68427;48.476;19.102;2023-03-24T07:19:02;97130.88;;;10.19;67.34
79028;BME280;68427;48.476;19.102;2023-03-24T07:21:28;97132.72;;;10.31;67.89
79028;BME280;68427;48.476;19.102;2023-03-24T07:23:54;97120.19;;;10.60;66.61
79028;BME280;68427;48.476;19.102;2023-03-24T07:26:20;97118.50;;;10.86;65.48
79028;BME280;68427;48.476;19.102;2023-03-24T07:28:46;97124.53;;;10.93;65.44
79028;BME280;68427;48.476;19.102;2023-03-24T07:31:12;97120.06;;;11.07;65.62
79028;BME280;68427;48.476;19.102;2023-03-24T07:33:37;97119.41;;;11.18;65.08
79028;BME280;68427;48.476;19.102;2023-03-24T07:36:05;97104.28;;;11.27;64.60
79028;BME280;68427;48.476;19.102;2023-03-24T07:38:32;97102.09;;;11.17;64.38
79028;BME280;68427;48.476;19.102;2023-03-24T07:40:58;97102.34;;;10.95;64.74
79028;BME280;68427;48.476;19.102;2023-03-24T07:43:24;97097.22;;;11.20;65.05
79028;BME280;68427;48.476;19.102;2023-03-24T07:45:50;97107.63;;;11.40;64.37
79028;BME280;68427;48.476;19.102;2023-03-24T07:48:16;97105.66;;;11.67;63.70
79028;BME280;68427;48.476;19.102;2023-03-24T07:50:42;97113.63;;;11.86;62.72
79028;BME280;68427;48.476;19.102;2023-03-24T07:53:09;97117.75;;;12.07;63.01
79028;BME280;68427;48.476;19.102;2023-03-24T07:55:35;97117.31;;;12.35;61.89
79028;BME280;68427;48.476;19.102;2023-03-24T07:58:01;97100.09;;;12.64;60.69
79028;BME280;68427;48.476;19.102;2023-03-24T08:00:26;97101.63;;;12.90;59.16
79028;BME280;68427;48.476;19.102;2023-03-24T08:02:53;97095.69;;;13.50;57.15
79028;BME280;68427;48.476;19.102;2023-03-24T08:05:21;97091.88;;;14.77;53.72
79028;BME280;68427;48.476;19.102;2023-03-24T08:07:48;97082.41;;;15.74;49.87
79028;BME280;68427;48.476;19.102;2023-03-24T08:10:23;97079.81;;;17.02;47.65
79028;BME280;68427;48.476;19.102;2023-03-24T08:12:49;97064.91;;;17.95;44.16
79028;BME280;68427;48.476;19.102;2023-03-24T08:15:16;97066.84;;;18.04;43.66
79028;BME280;68427;48.476;19.102;2023-03-24T08:17:42;97077.69;;;17.76;44.12
79028;BME280;68427;48.476;19.102;2023-03-24T08:20:10;97085.84;;;17.69;45.07
79028;BME280;68427;48.476;19.102;2023-03-24T08:22:39;97082.25;;;17.53;45.26
79028;BME280;68427;48.476;19.102;2023-03-24T08:25:06;97084.72;;;17.38;44.65
79028;BME280;68427;48.476;19.102;2023-03-24T08:27:34;97072.31;;;17.16;45.35
79028;BME280;68427;48.476;19.102;2023-03-24T08:30:03;97079.13;;;17.12;46.59
79028;BME280;68427;48.476;19.102;2023-03-24T08:32:29;97068.06;;;16.93;47.38
79028;BME280;68427;48.476;19.102;2023-03-24T08:34:56;97056.66;;;16.71;45.15
79028;BME280;68427;48.476;19.102;2023-03-24T08:37:22;97066.66;;;16.86;46.20
79028;BME280;68427;48.476;19.102;2023-03-24T08:39:47;97067.19;;;16.88;45.89
79028;BME280;68427;48.476;19.102;2023-03-24T08:42:13;97068.69;;;16.78;48.13
79028;BME280;68427;48.476;19.102;2023-03-24T08:44:40;97057.66;;;16.48;48.83
79028;BME280;68427;48.476;19.102;2023-03-24T08:47:06;97055.09;;;16.53;49.20
79028;BME280;68427;48.476;19.102;2023-03-24T08:49:32;97048.59;;;16.60;49.19
79028;BME280;68427;48.476;19.102;2023-03-24T08:51:58;97040.44;;;16.67;48.61
79028;BME280;68427;48.476;19.102;2023-03-24T08:54:24;97036.06;;;16.73;48.72
79028;BME280;68427;48.476;19.102;2023-03-24T08:56:50;97033.28;;;16.84;48.12
79028;BME280;68427;48.476;19.102;2023-03-24T08:59:16;97028.50;;;16.42;46.64
79028;BME280;68427;48.476;19.102;2023-03-24T09:01:44;97036.28;;;16.71;47.46
79028;BME280;68427;48.476;19.102;2023-03-24T09:04:10;97031.22;;;16.70;47.56
79028;BME280;68427;48.476;19.102;2023-03-24T09:06:35;97034.06;;;16.63;47.09
79028;BME280;68427;48.476;19.102;2023-03-24T09:09:01;97025.88;;;16.64;46.77
79028;BME280;68427;48.476;19.102;2023-03-24T09:11:27;97021.09;;;16.61;46.37
79028;BME280;68427;48.476;19.102;2023-03-24T09:13:52;97014.63;;;16.74;45.89
79028;BME280;68427;48.476;19.102;2023-03-24T09:16:18;97013.59;;;16.75;45.76
79028;BME280;68427;48.476;19.102;2023-03-24T09:18:45;97011.16;;;16.91;45.06
79028;BME280;68427;48.476;19.102;2023-03-24T09:21:11;97007.84;;;17.27;43.80
79028;BME280;68427;48.476;19.102;2023-03-24T09:23:37;97006.63;;;17.67;42.96
79028;BME280;68427;48.476;19.102;2023-03-24T09:26:04;97001.13;;;18.06;42.95
79028;BME280;68427;48.476;19.102;2023-03-24T09:28:31;96997.31;;;18.82;41.40
79028;BME280;68427;48.476;19.102;2023-03-24T09:30:58;96991.06;;;19.34;39.64
79028;BME280;68427;48.476;19.102;2023-03-24T09:33:24;96990.56;;;20.14;37.97
79028;BME280;68427;48.476;19.102;2023-03-24T09:35:55;96986.16;;;20.80;37.06
79028;BME280;68427;48.476;19.102;2023-03-24T09:38:22;96982.94;;;20.83;35.69
79028;BME280;68427;48.476;19.102;2023-03-24T09:40:50;96985.38;;;20.69;35.55
79028;BME280;68427;48.476;19.102;2023-03-24T09:43:24;96986.63;;;20.92;35.76
79028;BME280;68427;48.476;19.102;2023-03-24T09:45:53;96984.41;;;20.34;36.05
79028;BME280;68427;48.476;19.102;2023-03-24T09:48:27;96983.09;;;20.32;36.77
79028;BME280;68427;48.476;19.102;2023-03-24T09:50:59;96981.53;;;20.96;35.06
79028;BME280;68427;48.476;19.102;2023-03-24T09:53:32;96979.72;;;22.33;32.81
79028;BME280;68427;48.476;19.102;2023-03-24T09:56:07;96980.78;;;22.56;32.50
79028;BME280;68427;48.476;19.102;2023-03-24T09:58:35;96975.44;;;21.74;33.41
79028;BME280;68427;48.476;19.102;2023-03-24T10:01:01;96976.25;;;21.35;34.68
79028;BME280;68427;48.476;19.102;2023-03-24T10:03:27;96965.25;;;21.02;34.91
79028;BME280;68427;48.476;19.102;2023-03-24T10:05:57;96954.16;;;20.90;35.95
79028;BME280;68427;48.476;19.102;2023-03-24T10:08:26;96946.88;;;21.01;35.01
79028;BME280;68427;48.476;19.102;2023-03-24T10:10:59;96951.16;;;21.02;36.00
79028;BME280;68427;48.476;19.102;2023-03-24T10:13:33;96947.28;;;21.23;35.39
79028;BME280;68427;48.476;19.102;2023-03-24T10:16:06;96940.84;;;20.85;36.03
79028;BME280;68427;48.476;19.102;2023-03-24T10:18:39;96935.97;;;22.05;34.46
79028;BME280;68427;48.476;19.102;2023-03-24T10:21:15;96926.75;;;22.46;30.94
79028;BME280;68427;48.476;19.102;2023-03-24T10:23:47;96919.59;;;23.22;29.68
79028;BME280;68427;48.476;19.102;2023-03-24T10:26:35;96919.91;;;23.20;30.92
79028;BME280;68427;48.476;19.102;2023-03-24T10:29:15;96917.25;;;24.00;29.03
79028;BME280;68427;48.476;19.102;2023-03-24T10:31:46;96915.09;;;23.88;30.08
79028;BME280;68427;48.476;19.102;2023-03-24T10:34:14;96918.06;;;24.00;31.21
79028;BME280;68427;48.476;19.102;2023-03-24T10:36:42;96918.00;;;24.97;30.04
79028;BME280;68427;48.476;19.102;2023-03-24T10:39:13;96914.03;;;25.98;29.29
79028;BME280;68427;48.476;19.102;2023-03-24T10:41:41;96915.44;;;26.44;27.82
79028;BME280;68427;48.476;19.102;2023-03-24T10:44:06;96915.59;;;25.23;28.52
79028;BME280;68427;48.476;19.102;2023-03-24T10:46:34;96908.88;;;24.48;27.40
79028;BME280;68427;48.476;19.102;2023-03-24T10:49:14;96913.97;;;23.75;24.94
79028;BME280;68427;48.476;19.102;2023-03-24T10:51:45;96906.88;;;23.33;26.33
79028;BME280;68427;48.476;19.102;2023-03-24T10:54:15;96908.38;;;22.63;27.16
79028;BME280;68427;48.476;19.102;2023-03-24T10:56:43;96900.56;;;21.99;26.67
79028;BME280;68427;48.476;19.102;2023-03-24T10:59:20;96899.78;;;21.70;28.06
79028;BME280;68427;48.476;19.102;2023-03-24T11:01:47;96895.66;;;21.53;28.54
79028;BME280;68427;48.476;19.102;2023-03-24T11:04:14;96892.59;;;20.97;29.67
79028;BME280;68427;48.476;19.102;2023-03-24T11:06:55;96903.25;;;20.97;28.93
79028;BME280;68427;48.476;19.102;2023-03-24T11:09:23;96902.31;;;20.77;30.37
79028;BME280;68427;48.476;19.102;2023-03-24T11:11:49;96892.84;;;21.00;29.70
79028;BME280;68427;48.476;19.102;2023-03-24T11:14:21;96896.50;;;20.65;30.70
79028;BME280;68427;48.476;19.102;2023-03-24T11:16:50;96889.78;;;20.07;30.90
79028;BME280;68427;48.476;19.102;2023-03-24T11:19:18;96893.56;;;19.86;30.78
79028;BME280;68427;48.476;19.102;2023-03-24T11:21:44;96886.69;;;19.70;31.39
79028;BME280;68427;48.476;19.102;2023-03-24T11:24:14;96880.81;;;19.62;32.49
79028;BME280;68427;48.476;19.102;2023-03-24T11:26:44;96879.78;;;19.84;31.37
79028;BME280;68427;48.476;19.102;2023-03-24T11:29:13;96877.38;;;19.72;32.75
79028;BME280;68427;48.476;19.102;2023-03-24T11:31:40;96880.06;;;19.31;32.96
79028;BME280;68427;48.476;19.102;2023-03-24T11:34:08;96880.31;;;19.09;33.58
79028;BME280;68427;48.476;19.102;2023-03-24T11:36:50;96871.28;;;19.15;33.35
79028;BME280;68427;48.476;19.102;2023-03-24T11:39:21;96872.03;;;18.85;34.12
79028;BME280;68427;48.476;19.102;2023-03-24T11:41:58;96868.84;;;18.78;35.00
79028;BME280;68427;48.476;19.102;2023-03-24T11:44:30;96874.63;;;18.60;35.90
79028;BME280;68427;48.476;19.102;2023-03-24T11:46:58;96872.50;;;18.51;35.51
79028;BME280;68427;48.476;19.102;2023-03-24T11:49:28;96878.75;;;18.30;35.62
79028;BME280;68427;48.476;19.102;2023-03-24T11:51:54;96878.78;;;18.35;36.28
79028;BME280;68427;48.476;19.102;2023-03-24T11:54:24;96873.41;;;18.14;37.17
79028;BME280;68427;48.476;19.102;2023-03-24T11:56:53;96882.94;;;18.16;36.99
79028;BME280;68427;48.476;19.102;2023-03-24T11:59:32;96878.66;;;18.04;37.25
79028;BME280;68427;48.476;19.102;2023-03-24T12:02:11;96871.81;;;18.08;38.05
79028;BME280;68427;48.476;19.102;2023-03-24T12:04:44;96862.78;;;18.09;38.17
79028;BME280;68427;48.476;19.102;2023-03-24T12:07:40;96857.06;;;18.43;37.83
79028;BME280;68427;48.476;19.102;2023-03-24T12:10:22;96849.94;;;18.49;37.49
79028;BME280;68427;48.476;19.102;2023-03-24T12:12:59;96850.50;;;18.66;38.08
79028;BME280;68427;48.476;19.102;2023-03-24T12:15:38;96842.84;;;18.80;37.32
79028;BME280;68427;48.476;19.102;2023-03-24T12:18:37;96845.50;;;18.90;36.37
79028;BME280;68427;48.476;19.102;2023-03-24T12:21:11;96834.84;;;18.60;37.82
79028;BME280;68427;48.476;19.102;2023-03-24T12:23:47;96842.75;;;18.44;38.51
79028;BME280;68427;48.476;19.102;2023-03-24T12:26:22;96825.78;;;18.45;37.82
79028;BME280;68427;48.476;19.102;2023-03-24T12:29:00;96835.50;;;18.14;38.45
79028;BME280;68427;48.476;19.102;2023-03-24T12:31:41;96833.13;;;18.23;38.77
79028;BME280;68427;48.476;19.102;2023-03-24T12:34:32;96833.44;;;18.26;39.34
79028;BME280;68427;48.476;19.102;2023-03-24T12:37:08;96831.06;;;18.35;38.34
79028;BME280;68427;48.476;19.102;2023-03-24T12:39:45;96822.81;;;18.21;38.84
79028;BME280;68427;48.476;19.102;2023-03-24T12:42:18;96825.50;;;18.37;37.94
79028;BME280;68427;48.476;19.102;2023-03-24T12:45:03;96833.16;;;18.33;38.15
79028;BME280;68427;48.476;19.102;2023-03-24T12:47:52;96828.94;;;18.32;40.45
79028;BME280;68427;48.476;19.102;2023-03-24T12:50:29;96823.91;;;18.35;38.54
79028;BME280;68427;48.476;19.102;2023-03-24T12:53:08;96828.41;;;18.40;39.23
79028;BME280;68427;48.476;19.102;2023-03-24T12:55:41;96825.75;;;18.30;39.75
79028;BME280;68427;48.476;19.102;2023-03-24T12:58:13;96828.91;;;18.22;39.47
79028;BME280;68427;48.476;19.102;2023-03-24T13:00:49;96819.31;;;18.10;39.39
79028;BME280;68427;48.476;19.102;2023-03-24T13:03:25;96820.63;;;18.13;38.92
79028;BME280;68427;48.476;19.102;2023-03-24T13:05:54;96819.84;;;18.12;39.86
79028;BME280;68427;48.476;19.102;2023-03-24T13:08:24;96828.84;;;18.06;39.32
79028;BME280;68427;48.476;19.102;2023-03-24T13:11:00;96829.13;;;18.15;40.16
79028;BME280;68427;48.476;19.102;2023-03-24T13:13:32;96819.63;;;18.19;40.67